createdAt,value
2017-09-27T00:00:01.701Z,19.70
2017-09-27T00:02:29.631Z,19.70
2017-09-27T00:04:56.815Z,19.80
2017-09-27T00:07:23.966Z,19.80
2017-09-27T00:09:51.899Z,19.80
2017-09-27T00:12:19.847Z,19.80
2017-09-27T00:14:47.762Z,19.70
2017-09-27T00:17:14.954Z,19.80
2017-09-27T00:19:42.099Z,19.70
2017-09-27T00:22:09.251Z,19.70
2017-09-27T00:24:37.218Z,19.70
2017-09-27T00:27:04.364Z,19.70
2017-09-27T00:29:32.475Z,19.70
2017-09-27T00:32:00.387Z,19.70
2017-09-27T00:34:27.545Z,19.70
2017-09-27T00:36:55.630Z,19.70
2017-09-27T00:39:22.782Z,19.70
2017-09-27T00:41:49.936Z,19.70
2017-09-27T00:44:17.122Z,19.70
2017-09-27T00:46:45.073Z,19.70
2017-09-27T00:49:12.223Z,19.70
2017-09-27T00:51:39.363Z,19.70
2017-09-27T00:54:06.547Z,19.70
2017-09-27T00:56:34.459Z,19.60
2017-09-27T00:59:01.613Z,19.60
2017-09-27T01:01:28.812Z,19.60
2017-09-27T01:03:57.570Z,19.70
2017-09-27T01:06:24.723Z,19.70
2017-09-27T01:08:51.873Z,19.70
2017-09-27T01:11:19.059Z,19.70
2017-09-27T01:13:47.016Z,19.70
2017-09-27T01:16:15.739Z,19.60
2017-09-27T01:18:43.824Z,19.60
2017-09-27T01:21:11.003Z,19.60
2017-09-27T01:23:38.156Z,19.70
2017-09-27T01:26:05.338Z,19.60
2017-09-27T01:28:33.299Z,19.70
2017-09-27T01:31:02.130Z,19.80
2017-09-27T01:33:29.280Z,19.80
2017-09-27T01:35:56.462Z,19.80
2017-09-27T01:38:23.641Z,19.90
2017-09-27T01:40:50.779Z,19.90
2017-09-27T01:43:18.503Z,19.90
2017-09-27T01:45:45.652Z,19.90
2017-09-27T01:48:13.741Z,19.90
2017-09-27T01:50:40.887Z,19.90
2017-09-27T01:53:08.038Z,19.90
2017-09-27T01:55:36.016Z,19.80
2017-09-27T01:58:03.163Z,19.80
2017-09-27T02:00:30.319Z,19.90
2017-09-27T02:02:57.508Z,19.80
2017-09-27T02:05:24.655Z,19.90
2017-09-27T02:07:51.808Z,19.80
2017-09-27T02:10:18.987Z,19.80
2017-09-27T02:12:46.175Z,19.80
2017-09-27T02:15:13.363Z,19.80
2017-09-27T02:17:41.278Z,19.80
2017-09-27T02:20:08.427Z,19.80
2017-09-27T02:22:35.618Z,19.80
2017-09-27T02:25:02.770Z,19.80
2017-09-27T02:27:30.839Z,19.80
2017-09-27T02:29:58.019Z,19.80
2017-09-27T02:32:25.968Z,19.80
2017-09-27T02:34:53.155Z,19.80
2017-09-27T02:37:21.067Z,19.70
2017-09-27T02:39:48.259Z,19.70
2017-09-27T02:42:17.020Z,19.70
2017-09-27T02:44:44.167Z,19.70
2017-09-27T02:47:11.343Z,19.70
2017-09-27T02:49:38.524Z,19.70
2017-09-27T02:52:05.670Z,19.80
2017-09-27T02:54:32.863Z,19.80
2017-09-27T02:57:00.015Z,19.70
2017-09-27T02:59:28.095Z,19.70
2017-09-27T03:01:55.287Z,19.70
2017-09-27T03:04:23.203Z,19.70
2017-09-27T03:06:50.359Z,19.70
2017-09-27T03:09:17.542Z,19.70
2017-09-27T03:11:44.727Z,19.70
2017-09-27T03:14:11.938Z,19.70
2017-09-27T03:16:39.090Z,19.70
2017-09-27T03:19:06.236Z,19.70
2017-09-27T03:21:33.428Z,19.60
2017-09-27T03:24:00.579Z,19.70
2017-09-27T03:26:27.776Z,19.70
2017-09-27T03:28:54.932Z,19.70
2017-09-27T03:31:22.086Z,19.70
2017-09-27T03:33:50.196Z,19.70
2017-09-27T03:36:18.107Z,19.70
2017-09-27T03:38:45.259Z,19.70
2017-09-27T03:41:12.438Z,19.70
2017-09-27T03:43:39.667Z,19.70
2017-09-27T03:46:06.817Z,19.70
2017-09-27T03:48:34.015Z,19.70
2017-09-27T03:51:02.843Z,19.70
2017-09-27T03:53:29.991Z,19.70
2017-09-27T03:55:57.983Z,19.80
2017-09-27T03:58:25.135Z,19.80
2017-09-27T04:00:52.313Z,19.90
2017-09-27T04:03:19.498Z,19.90
2017-09-27T04:05:47.447Z,19.90
2017-09-27T04:08:15.549Z,19.90
2017-09-27T04:10:42.703Z,19.90
2017-09-27T04:13:10.662Z,19.90
2017-09-27T04:15:38.617Z,19.80
2017-09-27T04:18:06.573Z,19.80
2017-09-27T04:20:33.723Z,19.80
2017-09-27T04:23:00.872Z,19.80
2017-09-27T04:25:28.056Z,19.90
2017-09-27T04:27:55.749Z,19.90
2017-09-27T04:30:22.935Z,19.90
2017-09-27T04:32:50.899Z,19.90
2017-09-27T04:35:18.047Z,19.90
2017-09-27T04:37:45.239Z,19.80
2017-09-27T04:40:14.076Z,19.80
2017-09-27T04:42:41.722Z,19.80
2017-09-27T04:45:08.869Z,19.80
2017-09-27T04:47:36.819Z,19.80
2017-09-27T04:50:04.019Z,19.90
2017-09-27T04:52:31.166Z,19.80
2017-09-27T04:54:58.347Z,19.80
2017-09-27T04:57:25.543Z,19.80
2017-09-27T04:59:53.618Z,19.80
2017-09-27T05:02:21.748Z,19.80
2017-09-27T05:04:48.899Z,19.80
2017-09-27T05:07:16.105Z,19.80
2017-09-27T05:09:43.254Z,19.80
2017-09-27T05:12:10.408Z,19.80
2017-09-27T05:14:37.596Z,19.80
2017-09-27T05:17:04.749Z,19.80
2017-09-27T05:19:31.896Z,19.80
2017-09-27T05:21:59.086Z,19.80
2017-09-27T05:24:26.272Z,19.80
2017-09-27T05:26:53.417Z,19.80
2017-09-27T05:29:20.632Z,19.80
2017-09-27T05:31:49.457Z,19.80
2017-09-27T05:34:16.616Z,19.80
2017-09-27T05:36:43.824Z,19.90
2017-09-27T05:39:12.546Z,20.00
2017-09-27T05:41:39.693Z,20.00
2017-09-27T05:44:07.663Z,20.00
2017-09-27T05:46:34.813Z,20.00
2017-09-27T05:49:02.043Z,20.00
2017-09-27T05:51:29.955Z,20.00
2017-09-27T05:53:58.017Z,20.00
2017-09-27T05:56:25.170Z,20.00
2017-09-27T05:58:53.304Z,20.00
2017-09-27T06:01:21.222Z,20.00
2017-09-27T06:03:48.480Z,20.00
2017-09-27T06:06:15.663Z,20.00
2017-09-27T06:08:44.607Z,20.00
2017-09-27T06:11:11.803Z,20.00
2017-09-27T06:13:39.872Z,19.90
2017-09-27T06:16:07.019Z,19.90
2017-09-27T06:18:34.200Z,19.90
2017-09-27T06:21:03.157Z,19.90
2017-09-27T06:23:30.364Z,19.90
2017-09-27T06:25:57.519Z,19.90
2017-09-27T06:28:24.667Z,19.90
2017-09-27T06:30:51.852Z,19.90
2017-09-27T06:33:19.002Z,19.80
2017-09-27T06:35:46.195Z,19.80
2017-09-27T06:38:14.140Z,19.80
2017-09-27T06:40:42.088Z,19.80
2017-09-27T06:43:09.275Z,19.80
2017-09-27T06:45:36.461Z,19.80
2017-09-27T06:48:03.615Z,19.90
2017-09-27T06:50:30.791Z,19.80
2017-09-27T06:52:58.717Z,19.80
2017-09-27T06:55:26.680Z,19.80
2017-09-27T06:57:54.616Z,19.80
2017-09-27T07:00:21.769Z,19.80
2017-09-27T07:02:49.841Z,19.80
2017-09-27T07:05:17.759Z,19.80
2017-09-27T07:07:44.955Z,19.80
2017-09-27T07:10:12.106Z,19.80
2017-09-27T07:12:40.067Z,19.80
2017-09-27T07:15:07.265Z,19.80
2017-09-27T07:17:35.183Z,19.80
2017-09-27T07:20:03.144Z,19.80
2017-09-27T07:22:30.344Z,19.80
2017-09-27T07:24:58.403Z,19.80
2017-09-27T07:27:25.547Z,19.80
2017-09-27T07:29:52.750Z,19.90
2017-09-27T07:32:20.682Z,20.00
2017-09-27T07:34:48.598Z,20.00
2017-09-27T07:37:16.563Z,20.00
2017-09-27T07:39:43.715Z,20.10
2017-09-27T07:42:10.868Z,20.10
2017-09-27T07:44:38.536Z,20.10
2017-09-27T07:47:05.692Z,20.00
2017-09-27T07:49:33.777Z,20.00
2017-09-27T07:52:01.879Z,20.00
2017-09-27T07:54:29.046Z,20.00
2017-09-27T07:56:56.975Z,20.00
2017-09-27T07:59:24.936Z,20.00
2017-09-27T08:01:52.085Z,20.00
2017-09-27T08:04:19.271Z,20.00
2017-09-27T08:06:47.337Z,20.00
2017-09-27T08:09:14.530Z,20.00
2017-09-27T08:11:42.455Z,20.00
2017-09-27T08:14:09.652Z,20.00
2017-09-27T08:16:37.567Z,20.00
2017-09-27T08:19:04.715Z,19.90
2017-09-27T08:21:31.897Z,20.00
2017-09-27T08:23:59.055Z,20.00
2017-09-27T08:26:27.015Z,20.00
2017-09-27T08:28:54.202Z,20.00
2017-09-27T08:31:21.355Z,19.90
2017-09-27T08:33:49.327Z,19.90
2017-09-27T08:36:17.296Z,19.90
2017-09-27T08:38:44.452Z,20.00
2017-09-27T08:41:11.637Z,19.90
2017-09-27T08:43:39.687Z,19.90
2017-09-27T08:46:07.562Z,19.90
2017-09-27T08:48:35.620Z,19.90
2017-09-27T08:51:03.667Z,19.90
2017-09-27T08:53:32.560Z,19.90
2017-09-27T08:56:00.474Z,19.90
2017-09-27T08:58:27.633Z,19.90
2017-09-27T09:00:55.607Z,19.90
2017-09-27T09:03:23.542Z,19.90
2017-09-27T09:05:51.486Z,19.90
2017-09-27T09:08:19.436Z,19.90
2017-09-27T09:10:47.381Z,19.90
2017-09-27T09:13:15.488Z,19.90
2017-09-27T09:15:42.642Z,19.90
2017-09-27T09:18:11.362Z,20.00
2017-09-27T09:20:39.354Z,20.00
2017-09-27T09:23:07.271Z,20.00
2017-09-27T09:25:35.189Z,20.20
2017-09-27T09:28:03.151Z,20.20
2017-09-27T09:30:31.147Z,20.20
2017-09-27T09:32:59.208Z,20.20
2017-09-27T09:35:26.365Z,20.10
2017-09-27T09:37:53.552Z,20.10
2017-09-27T09:40:21.482Z,20.10
2017-09-27T09:42:49.558Z,20.10
2017-09-27T09:45:16.708Z,20.10
2017-09-27T09:47:43.895Z,20.10
2017-09-27T09:50:11.080Z,20.10
2017-09-27T09:52:38.229Z,20.10
2017-09-27T09:55:05.419Z,20.10
2017-09-27T09:57:32.571Z,20.10
2017-09-27T09:59:59.772Z,20.10
2017-09-27T10:02:27.685Z,20.10
2017-09-27T10:04:54.836Z,20.10
2017-09-27T10:07:22.799Z,20.10
2017-09-27T10:09:49.956Z,20.00
2017-09-27T10:12:17.108Z,20.00
2017-09-27T10:14:44.302Z,20.00
2017-09-27T10:17:12.218Z,20.00
2017-09-27T10:19:39.400Z,20.00
2017-09-27T10:22:06.547Z,20.10
2017-09-27T10:24:33.736Z,20.00
2017-09-27T10:27:02.452Z,20.00
2017-09-27T10:29:30.566Z,20.00
2017-09-27T10:31:58.658Z,20.00
2017-09-27T10:34:26.710Z,20.00
2017-09-27T10:36:54.827Z,20.00
2017-09-27T10:39:22.023Z,20.00
2017-09-27T10:41:49.175Z,20.00
2017-09-27T10:44:17.132Z,20.00
2017-09-27T10:46:44.385Z,20.00
2017-09-27T10:49:12.450Z,20.00
2017-09-27T10:51:40.517Z,20.00
2017-09-27T10:54:08.611Z,20.00
2017-09-27T10:56:35.778Z,20.00
2017-09-27T10:59:02.932Z,20.00
2017-09-27T11:01:30.120Z,20.00
2017-09-27T11:03:58.815Z,20.00
2017-09-27T11:06:26.954Z,20.00
2017-09-27T11:08:54.106Z,20.00
2017-09-27T11:11:21.257Z,20.00
2017-09-27T11:13:49.231Z,20.00
2017-09-27T11:16:16.412Z,20.00
2017-09-27T11:18:44.511Z,20.00
2017-09-27T11:21:11.672Z,20.10
2017-09-27T11:23:40.380Z,20.10
2017-09-27T11:26:07.568Z,20.10
2017-09-27T11:28:36.277Z,20.10
2017-09-27T11:31:03.480Z,20.10
2017-09-27T11:33:30.632Z,20.10
2017-09-27T11:35:57.785Z,20.10
2017-09-27T11:38:24.970Z,20.10
2017-09-27T11:40:52.123Z,20.10
2017-09-27T11:43:19.308Z,20.10
2017-09-27T11:45:47.291Z,20.10
2017-09-27T11:48:14.488Z,20.10
2017-09-27T11:50:42.407Z,20.10
2017-09-27T11:53:09.555Z,20.10
2017-09-27T11:55:37.646Z,20.10
2017-09-27T11:58:04.799Z,20.10
2017-09-27T12:00:31.983Z,20.10
2017-09-27T12:02:59.912Z,20.10
2017-09-27T12:05:28.789Z,20.10
2017-09-27T12:07:56.713Z,20.10
2017-09-27T12:10:24.774Z,20.10
2017-09-27T12:12:53.640Z,20.00
2017-09-27T12:15:21.707Z,20.00
2017-09-27T12:17:48.896Z,20.00
2017-09-27T12:20:18.673Z,20.00
2017-09-27T12:22:46.799Z,20.00
2017-09-27T12:25:13.958Z,20.00
2017-09-27T12:27:41.899Z,20.00
2017-09-27T12:30:09.854Z,20.00
2017-09-27T12:32:37.781Z,20.00
2017-09-27T12:35:05.884Z,20.00
2017-09-27T12:37:33.981Z,20.00
2017-09-27T12:40:02.845Z,20.00
2017-09-27T12:42:30.032Z,20.00
2017-09-27T12:44:58.915Z,20.00
2017-09-27T12:47:27.296Z,20.00
2017-09-27T12:49:56.184Z,20.00
2017-09-27T12:52:25.017Z,20.00
2017-09-27T12:54:53.115Z,20.00
2017-09-27T12:57:21.963Z,20.00
2017-09-27T12:59:49.154Z,19.90
2017-09-27T13:02:17.240Z,20.00
2017-09-27T13:04:45.318Z,20.00
2017-09-27T13:07:12.476Z,19.90
2017-09-27T13:09:40.449Z,19.90
2017-09-27T13:12:07.608Z,19.90
2017-09-27T13:14:36.321Z,19.90
2017-09-27T13:17:03.507Z,19.90
2017-09-27T13:19:31.566Z,19.90
2017-09-27T13:21:58.768Z,19.90
2017-09-27T13:24:25.924Z,19.90
2017-09-27T13:26:53.855Z,19.90
2017-09-27T13:29:21.823Z,19.90
2017-09-27T13:31:48.975Z,19.90
2017-09-27T13:34:16.163Z,19.90
2017-09-27T13:36:44.080Z,19.90
2017-09-27T13:39:11.237Z,19.90
2017-09-27T13:41:39.226Z,19.90
2017-09-27T13:44:07.139Z,19.90
2017-09-27T13:46:35.127Z,19.90
2017-09-27T13:49:02.279Z,19.90
2017-09-27T13:51:30.415Z,19.90
2017-09-27T13:53:58.353Z,19.80
2017-09-27T13:56:26.311Z,19.80
2017-09-27T13:58:54.267Z,19.90
2017-09-27T14:01:22.216Z,19.80
2017-09-27T14:03:51.137Z,19.80
2017-09-27T14:06:19.222Z,19.80
2017-09-27T14:08:46.381Z,19.80
2017-09-27T14:11:14.337Z,19.90
2017-09-27T14:13:42.271Z,19.90
2017-09-27T14:16:11.164Z,20.10
2017-09-27T14:18:39.984Z,20.10
2017-09-27T14:21:07.133Z,20.10
2017-09-27T14:23:34.335Z,20.20
2017-09-27T14:26:02.260Z,20.20
2017-09-27T14:28:29.417Z,20.20
2017-09-27T14:30:57.588Z,20.20
2017-09-27T14:33:25.653Z,20.30
2017-09-27T14:35:52.804Z,20.30
2017-09-27T14:38:19.995Z,20.30
2017-09-27T14:40:47.143Z,20.30
2017-09-27T14:43:15.250Z,20.30
2017-09-27T14:45:43.164Z,20.20
2017-09-27T14:48:10.308Z,20.20
2017-09-27T14:50:38.298Z,20.20
2017-09-27T14:53:05.457Z,20.20
2017-09-27T14:55:33.554Z,20.20
2017-09-27T14:58:01.479Z,20.20
2017-09-27T15:00:29.399Z,20.20
2017-09-27T15:02:57.335Z,20.20
2017-09-27T15:05:25.259Z,20.10
2017-09-27T15:07:52.455Z,20.20
2017-09-27T15:10:20.505Z,20.20
2017-09-27T15:12:47.663Z,20.10
2017-09-27T15:15:14.856Z,20.10
2017-09-27T15:17:43.692Z,20.10
2017-09-27T15:20:10.843Z,20.10
2017-09-27T15:22:38.816Z,20.10
2017-09-27T15:25:05.969Z,20.10
2017-09-27T15:27:33.166Z,20.10
2017-09-27T15:30:02.012Z,20.10
2017-09-27T15:32:29.157Z,20.00
2017-09-27T15:34:56.336Z,20.10
2017-09-27T15:37:23.486Z,20.10
2017-09-27T15:39:51.444Z,20.00
2017-09-27T15:42:18.592Z,20.00
2017-09-27T15:44:45.739Z,20.00
2017-09-27T15:47:13.166Z,20.00
2017-09-27T15:49:40.359Z,20.00
2017-09-27T15:52:08.291Z,20.00
2017-09-27T15:54:36.370Z,20.00
2017-09-27T15:57:03.551Z,20.00
2017-09-27T15:59:32.274Z,20.00
2017-09-27T16:02:01.004Z,20.00
2017-09-27T16:04:28.188Z,20.00
2017-09-27T16:06:55.339Z,20.00
2017-09-27T16:09:23.457Z,20.00
2017-09-27T16:11:51.507Z,20.00
2017-09-27T16:14:18.651Z,20.00
2017-09-27T16:16:46.744Z,20.00
2017-09-27T16:19:14.695Z,20.00
2017-09-27T16:21:42.750Z,19.90
2017-09-27T16:24:10.867Z,20.00
2017-09-27T16:26:39.696Z,19.90
2017-09-27T16:29:06.844Z,19.90
2017-09-27T16:31:34.027Z,19.90
2017-09-27T16:34:02.080Z,19.90
2017-09-27T16:36:29.279Z,19.90
2017-09-27T16:38:58.097Z,19.80
2017-09-27T16:41:26.006Z,19.80
2017-09-27T16:43:53.183Z,19.80
2017-09-27T16:46:21.095Z,19.80
2017-09-27T16:48:49.256Z,19.80
2017-09-27T16:51:16.408Z,19.90
2017-09-27T16:53:43.572Z,19.90
2017-09-27T16:56:11.555Z,20.00
2017-09-27T16:58:38.712Z,20.00
2017-09-27T17:01:05.865Z,20.00
2017-09-27T17:06:07.468Z,20.10
2017-09-27T17:08:35.416Z,20.10
2017-09-27T17:11:02.568Z,20.00
2017-09-27T17:13:29.771Z,20.00
2017-09-27T17:15:56.986Z,20.00
2017-09-27T17:18:24.911Z,20.10
2017-09-27T17:20:52.888Z,20.10
2017-09-27T17:23:20.080Z,20.10
2017-09-27T17:25:48.130Z,20.10
2017-09-27T17:28:15.286Z,20.00
2017-09-27T17:30:42.487Z,20.00
2017-09-27T17:33:09.643Z,20.00
2017-09-27T17:35:36.794Z,20.00
2017-09-27T17:38:04.041Z,20.10
2017-09-27T17:40:31.192Z,20.00
2017-09-27T17:43:00.855Z,20.00
2017-09-27T17:45:28.832Z,20.10
2017-09-27T17:47:56.024Z,20.10
2017-09-27T17:50:23.215Z,20.20
2017-09-27T17:52:50.363Z,20.30
2017-09-27T17:55:18.555Z,20.30
2017-09-27T17:57:45.707Z,20.30
2017-09-27T18:00:12.854Z,20.30
2017-09-27T18:02:40.951Z,20.30
2017-09-27T18:05:14.525Z,20.30
2017-09-27T18:07:47.468Z,20.20
2017-09-27T18:10:19.518Z,20.30
2017-09-27T18:12:53.963Z,20.20
2017-09-27T18:15:26.999Z,20.10
2017-09-27T18:17:54.201Z,20.20
2017-09-27T18:20:21.380Z,20.20
2017-09-27T18:22:49.299Z,20.20
2017-09-27T18:25:17.259Z,20.10
2017-09-27T18:27:45.177Z,20.10
2017-09-27T18:30:12.352Z,20.10
2017-09-27T18:32:39.549Z,20.10
2017-09-27T18:35:07.468Z,20.10
2017-09-27T18:37:34.619Z,20.00
2017-09-27T18:40:01.836Z,20.00
2017-09-27T18:42:28.984Z,20.00
2017-09-27T18:44:56.170Z,20.00
2017-09-27T18:47:23.356Z,20.00
2017-09-27T18:49:50.776Z,20.10
2017-09-27T18:52:18.723Z,20.00
2017-09-27T18:54:45.879Z,20.00
2017-09-27T18:57:13.056Z,20.00
2017-09-27T18:59:40.307Z,20.00
2017-09-27T19:02:07.587Z,20.00
2017-09-27T19:04:35.051Z,20.00
2017-09-27T19:07:02.207Z,20.00
2017-09-27T19:09:31.068Z,20.00
2017-09-27T19:11:58.253Z,20.00
2017-09-27T19:14:26.215Z,20.00
2017-09-27T19:16:54.354Z,20.00
2017-09-27T19:19:21.512Z,20.00
2017-09-27T19:21:48.664Z,20.00
2017-09-27T19:24:15.852Z,20.00
2017-09-27T19:26:43.835Z,19.90
2017-09-27T19:29:11.098Z,19.90
2017-09-27T19:31:38.277Z,19.90
2017-09-27T19:34:05.440Z,20.00
2017-09-27T19:36:32.636Z,20.00
2017-09-27T19:39:01.323Z,20.00
2017-09-27T19:41:30.137Z,20.00
2017-09-27T19:43:59.132Z,20.00
2017-09-27T19:46:26.332Z,20.00
